Sturgis, SD (57785)

9:24 PM MDT on October 22, 2014 (GMT -0600)
Elk Creek Village | Change Station
CLOSE
Current Station
Personal Weather Station
Location: Piedmont, SD
Elevation: 3576 ft
Nearby Weather Stations

Elev 3576 ft 44.24 °N, 103.40 °W | Updated 3 seconds ago

Clear
Clear
43.7 °F
Feels Like 44 °F
N
0.0
Wind Variable Wind from North
Gusts 0.0 mph

Today
High -- | Low -- °F
--% Chance of Precip.
Yesterday
High -- | Low -- °F
Precip. -- in
7:17 AM 5:57 PM
Waning Crescent, 1% visible
Pressure 30.03 in
Visibility 10.0 miles
Clouds Clear
Windchill 44 °F
Dew Point 35 °F
Humidity 70%
Rainfall 0.00 in
Snow Depth Not available.
UV 0 out of 12
Pollen 2.60 out of 12
Air Quality Not available.
Flu Activity Sporadic
METAR KSPF 230315Z AUTO 00000KT 10SM CLR 04/M02 A3003 RMK AO2

More Conditions Fewer Conditions

Pressure 30.03 in
Visibility 10.0 miles
Clouds Clear
Windchill 44 °F
Dew Point 35 °F
Humidity 70%
Rainfall 0.00 in
Snow Depth Not available.
UV 0 out of 12
Pollen 2.60 out of 12
Air Quality Not available.
Flu Activity Sporadic
METAR KSPF 230315Z AUTO 00000KT 10SM CLR 04/M02 A3003 RMK AO2

More Conditions Fewer Conditions

10-Day Weather Forecast

Almanac

Astronomy

Oct. 22, 2014 Rise Set
Actual Time 7:17 AM MDT 5:57 PM MDT
Civil Twilight 6:48 AM MDT 6:27 PM MDT
Nautical Twilight 6:14 AM MDT 7:01 PM MDT
Astronomical Twilight 5:40 AM MDT 7:34 PM MDT
Moon 5:58 AM MDT (10/22) 5:27 PM MDT (10/22)
Length of Visible Light 11h 39m
Length of Day
10h 40m
Tomorrow will be 2m 53s shorter.
Waning Crescent, 1% of the Moon is Illuminated
Today
Waning Crescent
Oct 23
New
Oct 30
First Quarter
Nov 6
Full
Nov 14
Last Quarter

Today's Extremes

State Highs State Lows

Community

WunderPhotos

Upload Photos

1,764,128 photos uploaded!

Nearby

Snow Depth

Station Depth Elevation
North Rapid Creek 1 in 6130 ft
Blind Park 0 in 6890 ft

Earthquake Activity

City Distance Mag. Time & Date
No recent earthquake activity has been reported nearby.
Minimum magnitude displayed is 2.5.

Coastal Water Temperatures

Place Temperature
No Stations Reporting

Nearby Weather Stations